createdAt,value
2018-03-07T00:00:39.808Z,15.60
2018-03-07T00:03:07.297Z,12.10
2018-03-07T00:05:34.737Z,12.07
2018-03-07T00:08:02.154Z,10.30
2018-03-07T00:10:29.629Z,12.70
2018-03-07T00:12:57.126Z,10.88
2018-03-07T00:15:24.571Z,11.12
2018-03-07T00:17:52.001Z,11.88
2018-03-07T00:20:19.407Z,11.45
2018-03-07T00:22:46.879Z,9.85
2018-03-07T00:25:14.346Z,11.48
2018-03-07T00:27:41.841Z,12.77
2018-03-07T00:30:09.270Z,14.38
2018-03-07T00:32:36.731Z,15.50
2018-03-07T00:35:04.154Z,14.63
2018-03-07T00:37:31.576Z,12.82
2018-03-07T00:39:59.133Z,11.48
2018-03-07T00:42:26.556Z,11.65
2018-03-07T00:44:53.956Z,9.65
2018-03-07T00:47:21.362Z,6.87
2018-03-07T00:49:48.761Z,8.65
2018-03-07T00:52:16.184Z,9.02
2018-03-07T00:54:43.601Z,11.07
2018-03-07T00:57:11.062Z,9.65
2018-03-07T00:59:38.487Z,10.48
2018-03-07T01:02:05.885Z,10.75
2018-03-07T01:04:33.351Z,9.43
2018-03-07T01:07:00.781Z,8.07
2018-03-07T01:09:28.244Z,8.35
2018-03-07T01:11:55.645Z,9.15
2018-03-07T01:14:23.090Z,11.00
2018-03-07T01:16:50.498Z,12.32
2018-03-07T01:19:17.925Z,11.05
2018-03-07T01:21:45.385Z,11.05
2018-03-07T01:24:17.983Z,10.45
2018-03-07T01:26:46.667Z,12.25
2018-03-07T01:29:14.111Z,11.40
2018-03-07T01:31:41.632Z,10.05
2018-03-07T01:34:09.095Z,10.73
2018-03-07T01:36:36.560Z,10.40
2018-03-07T01:39:04.009Z,11.75
2018-03-07T01:41:31.436Z,10.80
2018-03-07T01:43:58.854Z,11.80
2018-03-07T01:46:26.275Z,11.98
2018-03-07T01:48:53.720Z,12.45
2018-03-07T01:51:21.164Z,10.77
2018-03-07T01:53:48.686Z,9.30
2018-03-07T01:56:16.209Z,8.80
2018-03-07T01:58:43.657Z,10.38
2018-03-07T02:01:11.065Z,9.90
2018-03-07T02:03:52.774Z,9.15
2018-03-07T02:06:20.241Z,9.30
2018-03-07T02:08:47.665Z,9.35
2018-03-07T02:11:15.105Z,10.10
2018-03-07T02:13:42.625Z,10.52
2018-03-07T02:16:10.022Z,11.43
2018-03-07T02:18:37.488Z,9.80
2018-03-07T02:21:04.898Z,11.30
2018-03-07T02:23:32.344Z,11.35
2018-03-07T02:25:59.748Z,10.50
2018-03-07T02:28:27.180Z,10.98
2018-03-07T02:30:54.698Z,11.05
2018-03-07T02:33:22.106Z,10.93
2018-03-07T02:35:49.536Z,11.48
2018-03-07T02:38:16.993Z,10.02
2018-03-07T02:40:45.359Z,9.98
2018-03-07T02:43:12.766Z,12.05
2018-03-07T02:45:40.181Z,11.40
2018-03-07T02:48:07.607Z,9.90
2018-03-07T02:50:35.016Z,10.65
2018-03-07T02:53:02.448Z,11.32
2018-03-07T02:55:29.876Z,9.27
2018-03-07T02:57:57.286Z,10.65
2018-03-07T03:00:24.702Z,9.35
2018-03-07T03:02:52.190Z,10.18
2018-03-07T03:05:19.818Z,9.05
2018-03-07T03:07:47.243Z,9.57
2018-03-07T03:10:14.681Z,9.75
2018-03-07T03:12:42.127Z,8.90
2018-03-07T03:15:09.553Z,9.25
2018-03-07T03:17:36.974Z,8.75
2018-03-07T03:20:04.411Z,8.93
2018-03-07T03:22:31.837Z,7.78
2018-03-07T03:24:59.317Z,7.55
2018-03-07T03:27:26.726Z,9.10
2018-03-07T03:29:54.142Z,9.25
2018-03-07T03:32:21.542Z,7.60
2018-03-07T03:34:48.954Z,8.77
2018-03-07T03:37:16.351Z,9.35
2018-03-07T03:39:43.798Z,8.75
2018-03-07T03:42:11.238Z,8.88
2018-03-07T03:44:38.670Z,8.48
2018-03-07T03:47:06.096Z,10.38
2018-03-07T03:49:33.494Z,8.95
2018-03-07T03:52:00.921Z,10.32
2018-03-07T03:54:28.308Z,9.38
2018-03-07T03:56:55.766Z,10.82
2018-03-07T03:59:23.262Z,9.52
2018-03-07T04:01:50.678Z,9.55
2018-03-07T04:04:18.082Z,9.15
2018-03-07T04:06:45.583Z,9.38
2018-03-07T04:09:12.986Z,9.43
2018-03-07T04:11:40.411Z,10.25
2018-03-07T04:14:07.849Z,8.35
2018-03-07T04:16:35.274Z,9.60
2018-03-07T04:19:02.674Z,9.50
2018-03-07T04:21:30.089Z,9.73
2018-03-07T04:23:57.495Z,9.85
2018-03-07T04:26:24.920Z,10.23
2018-03-07T04:28:52.328Z,11.77
2018-03-07T04:31:19.748Z,13.10
2018-03-07T04:33:47.155Z,11.80
2018-03-07T04:36:14.746Z,12.77
2018-03-07T04:38:42.157Z,13.10
2018-03-07T04:41:10.021Z,15.15
2018-03-07T04:43:37.436Z,17.58
2018-03-07T04:46:04.896Z,17.25
2018-03-07T04:48:32.296Z,16.05
2018-03-07T04:50:59.708Z,16.60
2018-03-07T04:53:27.131Z,16.98
2018-03-07T04:55:54.575Z,16.92
2018-03-07T04:58:21.988Z,16.45
2018-03-07T05:00:49.420Z,15.60
2018-03-07T05:03:16.896Z,18.00
2018-03-07T05:05:44.306Z,19.58
2018-03-07T05:08:11.738Z,17.75
2018-03-07T05:10:39.152Z,16.17
2018-03-07T05:13:06.561Z,16.95
2018-03-07T05:15:34.010Z,17.55
2018-03-07T05:18:01.422Z,20.27
2018-03-07T05:20:28.837Z,18.00
2018-03-07T05:22:56.270Z,18.77
2018-03-07T05:25:23.679Z,19.15
2018-03-07T05:27:51.091Z,18.67
2018-03-07T05:30:18.504Z,16.67
2018-03-07T05:32:45.947Z,18.30
2018-03-07T05:35:13.414Z,16.52
2018-03-07T05:37:40.807Z,17.23
2018-03-07T05:40:08.209Z,15.80
2018-03-07T05:42:35.673Z,19.15
2018-03-07T05:45:03.093Z,16.10
2018-03-07T05:47:30.686Z,18.17
2018-03-07T05:49:58.081Z,19.05
2018-03-07T05:52:26.402Z,18.60
2018-03-07T05:54:53.806Z,20.12
2018-03-07T05:57:21.206Z,18.55
2018-03-07T05:59:48.629Z,18.40
2018-03-07T06:02:16.032Z,18.55
2018-03-07T06:04:43.450Z,17.65
2018-03-07T06:07:10.853Z,15.43
2018-03-07T06:09:38.278Z,16.23
2018-03-07T06:12:05.696Z,16.83
2018-03-07T06:14:33.155Z,16.08
2018-03-07T06:17:00.610Z,15.65
2018-03-07T06:19:27.982Z,15.98
2018-03-07T06:21:55.413Z,14.55
2018-03-07T06:24:22.896Z,17.55
2018-03-07T06:26:50.373Z,19.73
2018-03-07T06:29:17.830Z,23.75
2018-03-07T06:31:45.251Z,30.40
2018-03-07T06:34:12.683Z,24.48
2018-03-07T06:36:40.135Z,25.73
2018-03-07T06:39:07.604Z,23.15
2018-03-07T06:41:35.010Z,21.60
2018-03-07T06:44:02.446Z,21.27
2018-03-07T06:46:29.923Z,16.67
2018-03-07T06:48:57.328Z,14.18
2018-03-07T06:51:24.793Z,17.67
2018-03-07T06:53:52.241Z,14.60
2018-03-07T06:56:19.684Z,13.25
2018-03-07T06:58:47.109Z,14.38
2018-03-07T07:01:14.524Z,15.68
2018-03-07T07:03:41.965Z,18.50
2018-03-07T07:06:09.396Z,22.50
2018-03-07T07:08:36.811Z,24.52
2018-03-07T07:11:04.215Z,21.62
2018-03-07T07:13:31.661Z,23.70
2018-03-07T07:15:59.115Z,23.62
2018-03-07T07:18:26.525Z,20.50
2018-03-07T07:20:53.948Z,21.42
2018-03-07T07:23:21.356Z,22.50
2018-03-07T07:25:48.778Z,21.50
2018-03-07T07:28:16.183Z,21.33
2018-03-07T07:30:43.609Z,19.80
2018-03-07T07:33:11.018Z,24.40
2018-03-07T07:35:38.435Z,23.05
2018-03-07T07:38:05.861Z,21.80
2018-03-07T07:40:33.278Z,22.83
2018-03-07T07:43:00.848Z,23.80
2018-03-07T07:45:28.277Z,22.83
2018-03-07T07:47:55.720Z,21.85
2018-03-07T07:50:23.165Z,19.85
2018-03-07T07:52:50.581Z,21.62
2018-03-07T07:55:18.002Z,17.33
2018-03-07T07:57:45.411Z,20.50
2018-03-07T08:00:12.870Z,17.80
2018-03-07T08:02:40.334Z,16.98
2018-03-07T08:05:07.846Z,15.82
2018-03-07T08:07:35.277Z,19.87
2018-03-07T08:10:02.719Z,13.93
2018-03-07T08:12:30.129Z,14.85
2018-03-07T08:14:58.287Z,12.50
2018-03-07T08:17:25.727Z,9.32
2018-03-07T08:19:53.190Z,11.18
2018-03-07T08:22:20.629Z,9.68
2018-03-07T08:24:48.066Z,8.30
2018-03-07T08:27:15.534Z,10.05
2018-03-07T08:29:42.986Z,17.02
2018-03-07T08:32:10.402Z,18.30
2018-03-07T08:34:37.822Z,16.70
2018-03-07T08:37:05.239Z,12.88
2018-03-07T08:39:32.640Z,12.65
2018-03-07T08:42:00.071Z,6.95
2018-03-07T08:44:27.477Z,9.35
2018-03-07T08:46:54.903Z,11.55
2018-03-07T08:49:22.293Z,8.07
2018-03-07T08:51:49.734Z,6.43
2018-03-07T08:54:17.145Z,5.03
2018-03-07T08:56:44.570Z,3.42
2018-03-07T08:59:11.974Z,5.35
2018-03-07T09:01:39.388Z,3.65
2018-03-07T09:04:06.813Z,1.80
2018-03-07T09:06:34.325Z,2.55
2018-03-07T09:09:01.767Z,0.90
2018-03-07T09:11:29.201Z,1.20
2018-03-07T09:13:56.605Z,0.88
2018-03-07T09:16:24.010Z,0.93
2018-03-07T09:18:51.475Z,0.80
2018-03-07T09:21:18.917Z,1.00
2018-03-07T09:23:46.322Z,1.02
2018-03-07T09:26:13.949Z,0.80
2018-03-07T09:28:41.361Z,0.98
2018-03-07T09:31:08.779Z,1.00
2018-03-07T09:33:36.195Z,0.80
2018-03-07T09:36:03.652Z,0.90
2018-03-07T09:38:31.065Z,1.23
2018-03-07T09:40:58.563Z,1.10
2018-03-07T09:43:25.977Z,1.12
2018-03-07T09:45:53.379Z,1.10
2018-03-07T09:48:20.819Z,1.50
2018-03-07T09:50:48.233Z,1.12
2018-03-07T09:53:15.670Z,1.30
2018-03-07T09:55:43.088Z,1.20
2018-03-07T09:58:10.513Z,1.10
2018-03-07T10:00:37.982Z,1.40
2018-03-07T10:03:05.398Z,1.10
2018-03-07T10:05:32.815Z,1.10
2018-03-07T10:08:00.234Z,1.40
2018-03-07T10:10:27.641Z,1.60
2018-03-07T10:12:55.182Z,0.80
2018-03-07T10:15:22.589Z,0.80
2018-03-07T10:17:49.999Z,0.90
2018-03-07T10:20:17.441Z,0.82
2018-03-07T10:22:44.885Z,1.08
2018-03-07T10:25:12.274Z,0.85
2018-03-07T10:27:39.720Z,0.70
2018-03-07T10:30:07.149Z,0.80
2018-03-07T10:32:34.565Z,0.77
2018-03-07T10:35:01.975Z,1.25
2018-03-07T10:37:29.415Z,1.00
2018-03-07T10:39:56.849Z,1.20
2018-03-07T10:42:24.287Z,0.90
2018-03-07T10:44:51.730Z,1.02
2018-03-07T10:47:19.153Z,0.88
2018-03-07T10:49:46.598Z,0.70
2018-03-07T10:52:14.324Z,0.80
2018-03-07T10:54:41.765Z,0.82
2018-03-07T10:57:09.193Z,0.80
2018-03-07T10:59:36.615Z,0.70
2018-03-07T11:02:04.098Z,0.80
2018-03-07T11:04:31.526Z,0.90
2018-03-07T11:06:58.976Z,1.12
2018-03-07T11:09:26.396Z,0.90
2018-03-07T11:11:53.824Z,1.15
2018-03-07T11:14:21.259Z,1.20
2018-03-07T11:16:48.696Z,1.58
2018-03-07T11:19:16.173Z,1.65
2018-03-07T11:21:43.583Z,6.03
2018-03-07T11:24:11.081Z,1.80
2018-03-07T11:26:38.486Z,0.80
2018-03-07T11:29:05.946Z,0.90
2018-03-07T11:31:33.370Z,0.80
2018-03-07T11:34:00.899Z,1.20
2018-03-07T11:36:28.345Z,2.08
2018-03-07T11:38:55.796Z,1.77
2018-03-07T11:41:23.298Z,1.00
2018-03-07T11:43:50.733Z,0.88
2018-03-07T11:46:18.170Z,2.60
2018-03-07T11:48:45.581Z,1.45
2018-03-07T11:51:13.002Z,1.00
2018-03-07T11:53:40.435Z,1.17
2018-03-07T11:56:07.869Z,0.90
2018-03-07T11:58:35.281Z,1.00
2018-03-07T12:01:02.704Z,0.90
2018-03-07T12:03:30.187Z,0.70
2018-03-07T12:05:57.633Z,0.70
2018-03-07T12:08:25.064Z,0.60
2018-03-07T12:10:52.480Z,0.68
2018-03-07T12:13:19.894Z,0.80
2018-03-07T12:15:47.327Z,0.70
2018-03-07T12:18:14.741Z,1.00
2018-03-07T12:20:42.182Z,1.00
2018-03-07T12:23:09.605Z,0.90
2018-03-07T12:25:37.018Z,0.70
2018-03-07T12:28:04.455Z,1.00
2018-03-07T12:30:31.946Z,0.80
2018-03-07T12:32:59.378Z,0.90
2018-03-07T12:35:26.812Z,1.17
2018-03-07T12:37:54.234Z,1.08
2018-03-07T12:40:21.661Z,0.95
2018-03-07T12:42:49.068Z,1.00
2018-03-07T12:45:16.502Z,0.90
2018-03-07T12:47:43.924Z,0.85
2018-03-07T12:50:11.368Z,0.95
2018-03-07T12:52:38.793Z,0.77
2018-03-07T12:55:06.238Z,0.60
2018-03-07T12:57:33.649Z,0.70
2018-03-07T13:00:01.054Z,0.70
2018-03-07T13:02:28.508Z,0.90
2018-03-07T13:04:55.901Z,0.70
2018-03-07T13:07:23.404Z,0.73
2018-03-07T13:09:50.815Z,0.80
2018-03-07T13:12:18.431Z,1.10
2018-03-07T13:14:45.838Z,0.70
2018-03-07T13:17:13.277Z,0.90
2018-03-07T13:19:40.693Z,0.70
2018-03-07T13:22:08.102Z,0.80
2018-03-07T13:24:35.502Z,0.80
2018-03-07T13:27:02.927Z,0.70
2018-03-07T13:29:30.358Z,0.80
2018-03-07T13:31:57.798Z,0.70
2018-03-07T13:34:25.213Z,0.98
2018-03-07T13:36:52.629Z,0.77
2018-03-07T13:39:20.086Z,0.88
2018-03-07T13:41:47.562Z,0.90
2018-03-07T13:44:15.032Z,0.80
2018-03-07T13:46:42.451Z,0.70
2018-03-07T13:49:09.858Z,0.80
2018-03-07T13:51:37.286Z,0.90
2018-03-07T13:54:04.811Z,1.00
2018-03-07T13:56:32.245Z,0.80
2018-03-07T13:58:59.694Z,0.95
2018-03-07T14:01:27.132Z,0.90
2018-03-07T14:03:54.538Z,0.70
2018-03-07T14:06:22.209Z,0.67
2018-03-07T14:08:49.637Z,0.55
2018-03-07T14:11:17.077Z,0.75
2018-03-07T14:13:44.541Z,0.88
2018-03-07T14:16:11.969Z,0.70
2018-03-07T14:18:39.469Z,0.77
2018-03-07T14:21:06.874Z,0.80
2018-03-07T14:23:34.287Z,0.63
2018-03-07T14:26:01.707Z,0.80
2018-03-07T14:28:29.148Z,1.27
2018-03-07T14:30:56.554Z,0.93
2018-03-07T14:33:23.975Z,0.80
2018-03-07T14:35:51.394Z,1.13
2018-03-07T14:38:18.831Z,0.90
2018-03-07T14:40:46.250Z,0.65
2018-03-07T14:43:13.673Z,0.75
2018-03-07T14:45:41.093Z,0.70
2018-03-07T14:48:08.575Z,0.77
2018-03-07T14:50:36.075Z,0.98
2018-03-07T14:53:03.494Z,0.87
2018-03-07T14:55:30.911Z,0.67
2018-03-07T14:57:58.365Z,1.55
2018-03-07T15:00:25.914Z,0.90
2018-03-07T15:02:53.346Z,0.80
2018-03-07T15:05:20.780Z,1.30
2018-03-07T15:07:48.238Z,0.70
2018-03-07T15:10:15.722Z,0.90
2018-03-07T15:12:43.159Z,1.02
2018-03-07T15:15:10.587Z,0.85
2018-03-07T15:17:38.013Z,0.95
2018-03-07T15:20:05.452Z,0.70
2018-03-07T15:22:33.473Z,0.88
2018-03-07T15:25:00.911Z,0.80
2018-03-07T15:27:28.329Z,0.80
2018-03-07T15:29:55.743Z,1.00
2018-03-07T15:32:23.182Z,0.70
2018-03-07T15:34:50.600Z,0.90
2018-03-07T15:37:18.016Z,0.90
2018-03-07T15:39:45.436Z,1.00
2018-03-07T15:42:12.938Z,0.85
2018-03-07T15:44:40.362Z,1.00
2018-03-07T15:47:07.898Z,0.73
2018-03-07T15:49:35.374Z,1.00
2018-03-07T15:52:02.793Z,1.02
2018-03-07T15:54:30.212Z,0.90
2018-03-07T15:56:57.637Z,0.93
2018-03-07T15:59:25.058Z,1.10
2018-03-07T16:01:52.462Z,1.33
2018-03-07T16:04:19.883Z,1.10
2018-03-07T16:06:47.290Z,2.20
2018-03-07T16:09:14.779Z,1.05
2018-03-07T16:11:42.186Z,1.20
2018-03-07T16:14:09.589Z,0.90
2018-03-07T16:16:37.000Z,0.82
2018-03-07T16:19:04.428Z,0.75
2018-03-07T16:21:31.840Z,0.80
2018-03-07T16:23:59.289Z,0.90
2018-03-07T16:26:26.758Z,1.30
2018-03-07T16:28:54.162Z,0.95
2018-03-07T16:31:21.580Z,0.90
2018-03-07T16:33:49.006Z,0.73
2018-03-07T16:36:16.580Z,0.70
2018-03-07T16:38:43.982Z,0.80
2018-03-07T16:41:11.469Z,0.80
2018-03-07T16:43:38.909Z,1.20
2018-03-07T16:46:06.322Z,1.30
2018-03-07T16:48:33.727Z,1.87
2018-03-07T16:51:01.164Z,1.80
2018-03-07T16:53:28.549Z,1.20
2018-03-07T16:55:56.190Z,1.50
2018-03-07T16:58:23.597Z,1.92
2018-03-07T17:00:51.002Z,1.12
2018-03-07T17:03:18.398Z,1.60
2018-03-07T17:05:45.815Z,1.27
2018-03-07T17:08:13.245Z,1.10
2018-03-07T17:10:40.710Z,1.60
2018-03-07T17:13:08.121Z,1.80
2018-03-07T17:15:35.529Z,3.03
2018-03-07T17:18:03.422Z,2.37
2018-03-07T17:20:30.821Z,1.62
2018-03-07T17:22:58.326Z,2.65
2018-03-07T17:25:25.775Z,1.90
2018-03-07T17:27:53.184Z,2.70
2018-03-07T17:30:20.590Z,2.65
2018-03-07T17:32:48.025Z,2.87
2018-03-07T17:35:15.497Z,2.47
2018-03-07T17:37:42.924Z,1.50
2018-03-07T17:40:10.385Z,1.50
2018-03-07T17:42:37.811Z,1.40
2018-03-07T17:45:05.216Z,1.80
2018-03-07T17:47:32.643Z,1.20
2018-03-07T17:50:00.054Z,1.40
2018-03-07T17:52:27.455Z,1.37
2018-03-07T17:54:54.861Z,1.35
2018-03-07T17:57:22.271Z,1.20
2018-03-07T17:59:49.682Z,1.17
2018-03-07T18:02:17.648Z,2.35
2018-03-07T18:04:45.218Z,2.05
2018-03-07T18:07:12.622Z,1.80
2018-03-07T18:09:40.043Z,2.87
2018-03-07T18:12:07.506Z,2.20
2018-03-07T18:14:34.914Z,5.00
2018-03-07T18:17:02.348Z,6.70
2018-03-07T18:19:29.760Z,4.47
2018-03-07T18:21:57.177Z,2.80
2018-03-07T18:24:24.593Z,2.55
2018-03-07T18:26:52.037Z,3.72
2018-03-07T18:29:19.454Z,2.80
2018-03-07T18:31:46.853Z,2.75
2018-03-07T18:34:14.258Z,2.50
2018-03-07T18:36:41.664Z,2.50
2018-03-07T18:39:09.104Z,4.28
2018-03-07T18:41:36.530Z,5.18
2018-03-07T18:44:03.948Z,4.05
2018-03-07T18:46:31.479Z,5.43
2018-03-07T18:48:58.890Z,7.03
2018-03-07T18:51:26.290Z,5.90
2018-03-07T18:53:53.694Z,7.50
2018-03-07T18:56:21.093Z,6.65
2018-03-07T18:58:48.501Z,7.15
2018-03-07T19:01:15.906Z,3.12
2018-03-07T19:03:43.305Z,3.75
2018-03-07T19:06:10.723Z,2.53
2018-03-07T19:08:38.141Z,2.10
2018-03-07T19:11:05.541Z,7.87
2018-03-07T19:13:32.948Z,5.00
2018-03-07T19:16:00.343Z,4.25
2018-03-07T19:18:27.745Z,2.50
2018-03-07T19:20:55.144Z,1.70
2018-03-07T19:23:22.557Z,1.80
2018-03-07T19:25:49.962Z,1.65
2018-03-07T19:28:17.360Z,1.70
2018-03-07T19:30:44.757Z,1.67
2018-03-07T19:33:12.200Z,1.48
2018-03-07T19:35:39.553Z,2.37
2018-03-07T19:38:06.959Z,3.40
2018-03-07T19:40:34.381Z,2.70
2018-03-07T19:43:01.764Z,1.80
2018-03-07T19:45:29.169Z,1.75
2018-03-07T19:47:56.563Z,1.70
2018-03-07T19:50:23.962Z,2.05
2018-03-07T19:52:51.361Z,2.33
2018-03-07T19:55:18.766Z,2.20
2018-03-07T19:57:46.162Z,1.83
2018-03-07T20:00:13.583Z,1.87
2018-03-07T20:02:40.969Z,2.40
2018-03-07T20:05:08.369Z,2.97
2018-03-07T20:07:35.760Z,1.90
2018-03-07T20:10:03.178Z,1.92
2018-03-07T20:12:30.572Z,1.80
2018-03-07T20:14:57.968Z,2.93
2018-03-07T20:17:25.369Z,2.07
2018-03-07T20:19:52.768Z,3.17
2018-03-07T20:22:20.166Z,1.77
2018-03-07T20:24:47.569Z,2.37
2018-03-07T20:27:14.996Z,1.75
2018-03-07T20:29:42.402Z,1.50
2018-03-07T20:32:09.809Z,1.50
2018-03-07T20:34:37.211Z,1.42
2018-03-07T20:37:04.612Z,2.47
2018-03-07T20:39:32.021Z,1.90
2018-03-07T20:41:59.413Z,2.53
2018-03-07T20:44:26.807Z,1.80
2018-03-07T20:46:54.215Z,2.37
2018-03-07T20:49:21.604Z,2.20
2018-03-07T20:51:49.009Z,2.73
2018-03-07T20:54:16.408Z,3.87
2018-03-07T20:56:43.812Z,1.47
2018-03-07T20:59:11.209Z,2.47
2018-03-07T21:01:38.621Z,2.13
2018-03-07T21:04:06.018Z,2.10
2018-03-07T21:06:33.430Z,2.80
2018-03-07T21:09:00.821Z,2.67
2018-03-07T21:11:28.225Z,2.40
2018-03-07T21:13:55.616Z,2.70
2018-03-07T21:16:23.017Z,2.17
2018-03-07T21:18:50.417Z,2.10
2018-03-07T21:21:17.829Z,2.37
2018-03-07T21:23:45.230Z,2.47
2018-03-07T21:26:13.619Z,1.85
2018-03-07T21:28:41.022Z,1.80
2018-03-07T21:31:08.438Z,3.17
2018-03-07T21:33:35.825Z,2.70
2018-03-07T21:36:03.234Z,2.00
2018-03-07T21:38:30.641Z,2.13
2018-03-07T21:40:58.052Z,2.00
2018-03-07T21:43:25.449Z,1.90
2018-03-07T21:45:52.846Z,2.53
2018-03-07T21:48:20.245Z,2.60
2018-03-07T21:50:47.637Z,2.50
2018-03-07T21:53:15.077Z,2.27
2018-03-07T21:55:42.440Z,3.20
2018-03-07T21:58:09.841Z,2.90
2018-03-07T22:02:39.973Z,3.00
2018-03-07T22:05:07.364Z,2.63
2018-03-07T22:07:34.787Z,2.93
2018-03-07T22:10:02.184Z,3.40
2018-03-07T22:12:29.605Z,2.57
2018-03-07T22:14:57.001Z,2.97
2018-03-07T22:17:24.409Z,2.87
2018-03-07T22:19:51.811Z,3.50
2018-03-07T22:22:19.217Z,3.40
2018-03-07T22:24:46.921Z,2.93
2018-03-07T22:27:15.364Z,3.08
2018-03-07T22:29:42.759Z,3.77
2018-03-07T22:32:10.177Z,3.43
2018-03-07T22:34:37.565Z,3.33
2018-03-07T22:37:04.982Z,3.50
2018-03-07T22:39:32.388Z,2.83
2018-03-07T22:41:59.828Z,2.30
2018-03-07T22:44:27.193Z,3.50
2018-03-07T22:46:54.594Z,3.40
2018-03-07T22:49:22.011Z,2.63
2018-03-07T22:51:49.405Z,3.10
2018-03-07T22:54:16.818Z,2.90
2018-03-07T22:56:44.215Z,3.47
2018-03-07T22:59:11.624Z,3.67
2018-03-07T23:01:39.018Z,3.77
2018-03-07T23:04:06.437Z,2.83
2018-03-07T23:06:33.835Z,2.80
2018-03-07T23:09:01.239Z,2.97
2018-03-07T23:11:28.633Z,2.23
2018-03-07T23:13:56.040Z,2.10
2018-03-07T23:16:23.434Z,2.13
2018-03-07T23:18:50.841Z,2.30
2018-03-07T23:21:18.269Z,2.60
2018-03-07T23:23:45.666Z,2.97
2018-03-07T23:26:13.067Z,2.27
2018-03-07T23:28:40.467Z,3.10
2018-03-07T23:31:07.865Z,2.17
2018-03-07T23:33:35.269Z,2.20
2018-03-07T23:36:02.672Z,2.13
2018-03-07T23:38:30.072Z,2.47
2018-03-07T23:40:57.466Z,2.63
2018-03-07T23:43:24.873Z,2.80
2018-03-07T23:45:52.274Z,2.72
2018-03-07T23:48:19.674Z,2.53
2018-03-07T23:50:47.782Z,2.40
2018-03-07T23:53:15.247Z,2.63
2018-03-07T23:55:42.592Z,3.10
2018-03-07T23:58:09.992Z,2.90
